Sweden Valley, Pennsylvania
Current Conditions -  °F | °C
As of 7:56 PM on Sunday 21 Dec 2014 (Local Time) from KELZ Reporting Station
Overcast Overcast  
Wind Chill: 17°   Ceiling: 600
Heat Index: 25°   Visibility: 10mi
Dew Point: 22°   Wind: 7mph
Humidity: 88%   Direction: 160°SSE
Pressure: 30.24"   Gusts: NA
Location:  41.7605°N, 77.9728°W
Report Text: KELZ 220056Z AUTO 16006KT 10SM OVC006 M04/M06 A3024 RMK AO2 SLP271 T10391056
Loading
Personal Weather Stations






























Interactive Weather Map New forecast layout! Learn more

10-Day Weather Forecast

Advertisements
Track Severe Weather on mobile